createdAt,value
2024-03-18T00:03:07.125Z,64.79
2024-03-18T00:06:00.533Z,64.74
2024-03-18T00:08:53.249Z,64.60
2024-03-18T00:11:45.888Z,64.57
2024-03-18T00:14:39.191Z,64.08
2024-03-18T00:17:31.977Z,63.21
2024-03-18T00:20:25.805Z,63.24
2024-03-18T00:23:18.842Z,63.12
2024-03-18T00:26:11.728Z,62.69
2024-03-18T00:29:04.995Z,62.62
2024-03-18T00:31:58.047Z,62.50
2024-03-18T00:34:51.763Z,62.90
2024-03-18T00:37:44.914Z,63.01
2024-03-18T00:40:37.651Z,62.87
2024-03-18T00:43:30.601Z,63.06
2024-03-18T00:46:23.854Z,63.14
2024-03-18T00:49:17.332Z,62.80
2024-03-18T00:52:10.271Z,62.36
2024-03-18T00:55:05.171Z,62.26
2024-03-18T00:57:58.819Z,62.42
2024-03-18T01:00:51.629Z,62.34
2024-03-18T01:03:44.869Z,62.03
2024-03-18T01:06:37.957Z,62.40
2024-03-18T01:09:31.160Z,62.44
2024-03-18T01:12:24.321Z,61.97
2024-03-18T01:15:17.833Z,62.10
2024-03-18T01:18:10.932Z,62.22
2024-03-18T01:21:03.551Z,62.24
2024-03-18T01:23:56.302Z,62.33
2024-03-18T01:26:49.224Z,62.70
2024-03-18T01:29:43.002Z,62.94
2024-03-18T01:32:35.950Z,63.23
2024-03-18T01:35:30.730Z,63.59
2024-03-18T01:38:23.723Z,63.43
2024-03-18T01:41:16.713Z,63.62
2024-03-18T01:44:11.135Z,63.62
2024-03-18T01:47:03.830Z,63.49
2024-03-18T01:49:57.955Z,63.69
2024-03-18T01:52:50.977Z,63.74
2024-03-18T01:55:46.827Z,63.88
2024-03-18T01:58:42.819Z,63.75
2024-03-18T02:01:35.781Z,64.24
2024-03-18T02:04:29.137Z,65.27
2024-03-18T02:07:31.176Z,67.83
2024-03-18T02:10:24.684Z,69.23
2024-03-18T02:13:18.148Z,70.34
2024-03-18T02:16:11.965Z,71.04
2024-03-18T02:19:07.014Z,71.39
2024-03-18T02:22:07.954Z,71.80
2024-03-18T02:25:12.764Z,71.96
2024-03-18T02:28:10.875Z,71.99
2024-03-18T02:31:13.509Z,72.20
2024-03-18T02:34:09.026Z,72.49
2024-03-18T02:37:11.533Z,72.81
2024-03-18T02:40:14.030Z,72.93
2024-03-18T02:43:08.893Z,73.22
2024-03-18T02:46:14.081Z,73.44
2024-03-18T02:49:13.108Z,73.49
2024-03-18T02:52:14.936Z,73.60
2024-03-18T02:55:12.333Z,73.74
2024-03-18T02:58:09.630Z,73.82
2024-03-18T03:01:03.289Z,73.81
2024-03-18T03:04:01.169Z,73.86
2024-03-18T03:07:00.220Z,73.55
2024-03-18T03:10:07.409Z,73.52
2024-03-18T03:13:01.432Z,73.24
2024-03-18T03:16:01.854Z,73.21
2024-03-18T03:19:01.036Z,73.17
2024-03-18T03:22:10.641Z,72.48
2024-03-18T03:25:08.848Z,72.17
2024-03-18T03:28:10.443Z,72.15
2024-03-18T03:31:17.081Z,72.26
2024-03-18T03:34:13.484Z,72.45
2024-03-18T03:37:08.554Z,72.99
2024-03-18T03:40:04.669Z,73.31
2024-03-18T03:43:01.535Z,73.23
2024-03-18T03:46:05.913Z,73.09
2024-03-18T03:49:01.924Z,72.99
2024-03-18T03:51:57.899Z,72.92
2024-03-18T03:54:51.477Z,72.86
2024-03-18T03:57:47.135Z,72.66
2024-03-18T04:00:48.087Z,72.61
2024-03-18T04:03:49.100Z,72.75
2024-03-18T04:06:49.141Z,72.78
2024-03-18T04:09:49.207Z,72.78
2024-03-18T04:12:49.772Z,72.85
2024-03-18T04:15:48.555Z,72.68
2024-03-18T04:18:46.048Z,72.54
2024-03-18T04:21:42.665Z,72.54
2024-03-18T04:24:39.244Z,72.47
2024-03-18T04:27:38.695Z,72.53
2024-03-18T04:30:43.217Z,72.50
2024-03-18T04:33:42.220Z,72.53
2024-03-18T04:36:41.292Z,72.59
2024-03-18T04:39:36.963Z,72.70
2024-03-18T04:42:35.312Z,72.79
2024-03-18T04:45:41.904Z,72.54
2024-03-18T04:48:38.127Z,72.56
2024-03-18T04:51:35.713Z,72.50
2024-03-18T04:54:30.049Z,72.56
2024-03-18T04:57:30.979Z,72.58
2024-03-18T05:00:29.110Z,72.66
2024-03-18T05:03:24.072Z,72.49
2024-03-18T05:06:20.714Z,72.57
2024-03-18T05:09:19.588Z,72.50
2024-03-18T05:12:16.148Z,72.50
2024-03-18T05:15:16.166Z,72.50
2024-03-18T05:18:12.570Z,72.44
2024-03-18T05:21:15.539Z,72.39
2024-03-18T05:24:11.681Z,72.40
2024-03-18T05:27:10.582Z,72.42
2024-03-18T05:30:08.796Z,71.93
2024-03-18T05:33:09.282Z,71.96
2024-03-18T05:36:10.389Z,71.98
2024-03-18T05:39:04.271Z,71.88
2024-03-18T05:41:57.284Z,71.72
2024-03-18T05:44:56.531Z,71.25
2024-03-18T05:47:50.079Z,71.01
2024-03-18T05:50:48.161Z,70.63
2024-03-18T05:53:42.346Z,70.53
2024-03-18T05:56:41.358Z,70.30
2024-03-18T05:59:41.091Z,70.17
2024-03-18T06:02:35.523Z,69.88
2024-03-18T06:05:28.934Z,69.81
2024-03-18T06:08:22.170Z,70.21
2024-03-18T06:11:15.464Z,70.32
2024-03-18T06:14:11.397Z,70.26
2024-03-18T06:17:05.862Z,70.26
2024-03-18T06:20:00.064Z,70.15
2024-03-18T06:22:54.543Z,70.43
2024-03-18T06:25:58.849Z,70.21
2024-03-18T06:28:52.109Z,70.23
2024-03-18T06:31:46.016Z,70.06
2024-03-18T06:34:42.356Z,69.92
2024-03-18T06:37:40.572Z,69.54
2024-03-18T06:40:33.559Z,69.46
2024-03-18T06:43:26.350Z,69.25
2024-03-18T06:46:19.097Z,68.99
2024-03-18T06:49:12.554Z,68.75
2024-03-18T06:52:07.740Z,68.71
2024-03-18T06:55:01.385Z,68.72
2024-03-18T06:57:54.732Z,68.53
2024-03-18T07:00:47.984Z,68.73
2024-03-18T07:03:41.611Z,68.84
2024-03-18T07:06:34.302Z,68.72
2024-03-18T07:09:26.955Z,68.55
2024-03-18T07:12:19.702Z,68.30
2024-03-18T07:15:17.338Z,68.01
2024-03-18T07:18:10.470Z,67.15
2024-03-18T07:21:03.328Z,67.14
2024-03-18T07:23:56.351Z,66.55
2024-03-18T07:26:49.237Z,65.67
2024-03-18T07:29:41.840Z,64.12
2024-03-18T07:32:35.096Z,63.18
2024-03-18T07:35:27.742Z,62.70
2024-03-18T07:38:25.957Z,62.88
2024-03-18T07:41:19.185Z,63.04
2024-03-18T07:44:12.190Z,64.04
2024-03-18T07:47:05.954Z,61.42
2024-03-18T07:49:59.060Z,59.96
2024-03-18T07:52:51.711Z,59.68
2024-03-18T07:55:44.458Z,59.64
2024-03-18T07:58:37.072Z,60.34
2024-03-18T08:01:30.090Z,60.11
2024-03-18T08:04:22.869Z,60.03
2024-03-18T08:07:16.045Z,60.18
2024-03-18T08:10:10.739Z,60.88
2024-03-18T08:13:03.333Z,60.36
2024-03-18T08:16:00.317Z,60.89
2024-03-18T08:18:53.225Z,61.00
2024-03-18T08:21:45.988Z,60.13
2024-03-18T08:24:39.367Z,60.32
2024-03-18T08:27:33.484Z,59.91
2024-03-18T08:30:26.711Z,59.44
2024-03-18T08:33:25.641Z,59.85
2024-03-18T08:36:22.559Z,59.52
2024-03-18T08:39:15.315Z,58.86
2024-03-18T08:42:08.791Z,59.06
2024-03-18T08:45:01.548Z,59.50
2024-03-18T08:47:54.422Z,59.50
2024-03-18T08:50:47.452Z,58.08
2024-03-18T08:53:44.880Z,57.48
2024-03-18T08:56:39.235Z,57.47
2024-03-18T08:59:32.488Z,59.17
2024-03-18T09:02:25.608Z,58.08
2024-03-18T09:05:19.146Z,57.63
2024-03-18T09:08:11.910Z,57.85
2024-03-18T09:11:05.075Z,58.06
2024-03-18T09:13:57.446Z,57.57
2024-03-18T09:16:50.480Z,57.56
2024-03-18T09:19:43.365Z,58.85
2024-03-18T09:22:36.276Z,57.25
2024-03-18T09:25:32.865Z,57.32
2024-03-18T09:28:26.001Z,57.50
2024-03-18T09:31:19.167Z,57.98
2024-03-18T09:34:11.967Z,58.02
2024-03-18T09:37:05.226Z,58.56
2024-03-18T09:39:58.612Z,58.33
2024-03-18T09:42:51.865Z,58.27
2024-03-18T09:45:45.220Z,59.12
2024-03-18T09:48:38.556Z,59.29
2024-03-18T09:51:36.533Z,59.11
2024-03-18T09:54:29.234Z,59.77
2024-03-18T09:57:27.481Z,59.30
2024-03-18T10:00:21.788Z,59.69
2024-03-18T10:03:21.098Z,59.30
2024-03-18T10:06:15.689Z,59.29
2024-03-18T10:09:08.695Z,59.03
2024-03-18T10:12:01.576Z,59.14
2024-03-18T10:14:54.553Z,59.14
2024-03-18T10:17:47.718Z,59.22
2024-03-18T10:20:40.760Z,59.27
2024-03-18T10:23:37.586Z,58.79
2024-03-18T10:26:33.158Z,58.92
2024-03-18T10:29:25.985Z,58.72
2024-03-18T10:32:28.878Z,59.23
2024-03-18T10:35:27.525Z,59.07
2024-03-18T10:38:26.334Z,58.60
2024-03-18T10:41:22.475Z,59.50
2024-03-18T10:44:21.657Z,59.68
2024-03-18T10:47:17.336Z,59.69
2024-03-18T10:50:17.014Z,59.99
2024-03-18T10:53:19.795Z,59.51
2024-03-18T10:56:11.490Z,58.58
2024-03-18T10:59:04.750Z,58.38
2024-03-18T11:01:57.901Z,57.42
2024-03-18T11:04:51.211Z,56.34
2024-03-18T11:07:47.880Z,56.66
2024-03-18T11:10:42.270Z,55.93
2024-03-18T11:13:39.827Z,56.61
2024-03-18T11:16:36.390Z,56.32
2024-03-18T11:19:31.431Z,55.56
2024-03-18T11:22:24.312Z,56.62
2024-03-18T11:25:23.666Z,55.18
2024-03-18T11:28:17.170Z,56.07
2024-03-18T11:31:12.793Z,57.31
2024-03-18T11:34:11.194Z,57.40
2024-03-18T11:37:06.619Z,56.86
2024-03-18T11:40:00.243Z,56.82
2024-03-18T11:42:53.179Z,56.29
2024-03-18T11:45:54.003Z,56.50
2024-03-18T11:48:47.086Z,56.02
2024-03-18T11:51:44.608Z,56.46
2024-03-18T11:54:41.740Z,55.97
2024-03-18T11:57:35.575Z,55.90
2024-03-18T12:00:28.751Z,55.77
2024-03-18T12:03:23.428Z,56.27
2024-03-18T12:06:16.412Z,55.91
2024-03-18T12:09:12.925Z,55.35
2024-03-18T12:12:09.201Z,55.86
2024-03-18T12:15:02.867Z,54.38
2024-03-18T12:17:55.924Z,54.89
2024-03-18T12:20:54.150Z,54.28
2024-03-18T12:24:04.273Z,55.37
2024-03-18T12:27:14.475Z,55.64
2024-03-18T12:30:20.917Z,55.85
2024-03-18T12:33:16.708Z,55.28
2024-03-18T12:36:14.302Z,55.66
2024-03-18T12:39:11.074Z,55.16
2024-03-18T12:42:04.869Z,54.45
2024-03-18T12:44:59.077Z,53.93
2024-03-18T12:47:53.452Z,53.95
2024-03-18T12:50:47.552Z,53.01
2024-03-18T12:53:40.350Z,53.99
2024-03-18T12:56:33.499Z,53.05
2024-03-18T12:59:26.248Z,52.67
2024-03-18T13:02:21.059Z,52.53
2024-03-18T13:05:15.240Z,53.00
2024-03-18T13:08:12.361Z,53.12
2024-03-18T13:11:07.954Z,53.99
2024-03-18T13:14:00.902Z,52.85
2024-03-18T13:16:57.927Z,53.48
2024-03-18T13:19:51.953Z,53.91
2024-03-18T13:22:44.694Z,53.58
2024-03-18T13:25:38.667Z,55.02
2024-03-18T13:28:31.465Z,55.20
2024-03-18T13:31:24.259Z,54.61
2024-03-18T13:34:18.480Z,55.06
2024-03-18T13:37:11.573Z,54.93
2024-03-18T13:40:05.773Z,54.90
2024-03-18T13:42:59.041Z,54.61
2024-03-18T13:45:56.193Z,54.96
2024-03-18T13:48:49.472Z,55.00
2024-03-18T13:51:42.385Z,55.48
2024-03-18T13:54:35.509Z,54.37
2024-03-18T13:57:28.330Z,55.23
2024-03-18T14:00:25.918Z,54.94
2024-03-18T14:03:18.793Z,55.50
2024-03-18T14:06:13.158Z,55.42
2024-03-18T14:09:08.805Z,54.90
2024-03-18T14:12:02.408Z,55.25
2024-03-18T14:14:55.063Z,55.78
2024-03-18T14:17:49.418Z,55.67
2024-03-18T14:20:42.405Z,55.73
2024-03-18T14:23:35.454Z,55.14
2024-03-18T14:26:28.365Z,55.03
2024-03-18T14:29:21.988Z,55.61
2024-03-18T14:32:16.738Z,55.34
2024-03-18T14:35:16.059Z,56.16
2024-03-18T14:38:09.200Z,56.43
2024-03-18T14:41:06.414Z,56.41
2024-03-18T14:44:00.186Z,56.47
2024-03-18T14:46:52.813Z,55.67
2024-03-18T14:49:45.584Z,55.82
2024-03-18T14:52:38.150Z,56.58
2024-03-18T14:55:31.257Z,57.14
2024-03-18T14:58:24.915Z,57.22
2024-03-18T15:01:20.692Z,57.13
2024-03-18T15:04:13.567Z,57.77
2024-03-18T15:07:07.356Z,58.03
2024-03-18T15:10:00.379Z,58.14
2024-03-18T15:12:53.687Z,58.61
2024-03-18T15:15:46.659Z,59.15
2024-03-18T15:18:40.071Z,59.91
2024-03-18T15:21:33.023Z,60.49
2024-03-18T15:24:39.812Z,61.15
2024-03-18T15:27:48.568Z,61.69
2024-03-18T15:30:43.944Z,62.08
2024-03-18T15:33:36.904Z,62.38
2024-03-18T15:36:30.016Z,62.82
2024-03-18T15:39:23.668Z,63.17
2024-03-18T15:42:16.687Z,63.57
2024-03-18T15:45:12.520Z,63.30
2024-03-18T15:48:05.808Z,63.26
2024-03-18T15:50:59.182Z,63.16
2024-03-18T15:53:52.385Z,63.24
2024-03-18T15:56:54.835Z,63.64
2024-03-18T15:59:54.352Z,63.97
2024-03-18T16:02:50.960Z,64.38
2024-03-18T16:05:44.295Z,64.48
2024-03-18T16:08:40.540Z,64.47
2024-03-18T16:11:39.927Z,64.75
2024-03-18T16:14:33.587Z,65.06
2024-03-18T16:17:26.544Z,65.18
2024-03-18T16:20:19.942Z,65.13
2024-03-18T16:23:13.151Z,65.31
2024-03-18T16:26:06.855Z,65.32
2024-03-18T16:28:59.637Z,65.31
2024-03-18T16:31:52.948Z,65.33
2024-03-18T16:34:45.860Z,65.64
2024-03-18T16:37:38.936Z,65.75
2024-03-18T16:40:31.968Z,65.70
2024-03-18T16:43:25.136Z,65.89
2024-03-18T16:46:17.862Z,66.11
2024-03-18T16:49:11.000Z,66.19
2024-03-18T16:52:04.377Z,66.17
2024-03-18T16:54:57.283Z,66.34
2024-03-18T16:57:50.266Z,66.39
2024-03-18T17:00:45.077Z,66.44
2024-03-18T17:03:38.271Z,66.65
2024-03-18T17:06:31.100Z,66.75
2024-03-18T17:09:24.175Z,66.96
2024-03-18T17:12:17.296Z,67.02
2024-03-18T17:15:11.981Z,67.17
2024-03-18T17:18:05.980Z,67.32
2024-03-18T17:20:59.400Z,67.50
2024-03-18T17:23:54.611Z,67.45
2024-03-18T17:26:47.812Z,67.68
2024-03-18T17:29:41.381Z,67.83
2024-03-18T17:32:34.195Z,67.94
2024-03-18T17:35:44.967Z,68.09
2024-03-18T17:38:41.145Z,68.18
2024-03-18T17:41:34.195Z,68.33
2024-03-18T17:44:27.922Z,68.20
2024-03-18T17:47:21.156Z,68.24
2024-03-18T17:50:14.981Z,68.34
2024-03-18T17:53:07.887Z,68.44
2024-03-18T17:56:01.190Z,68.47
2024-03-18T17:58:54.356Z,68.49
2024-03-18T18:01:47.263Z,68.42
2024-03-18T18:04:40.481Z,68.67
2024-03-18T18:07:33.404Z,69.11
2024-03-18T18:10:26.772Z,68.82
2024-03-18T18:13:19.739Z,69.14
2024-03-18T18:16:14.130Z,68.70
2024-03-18T18:19:07.310Z,68.63
2024-03-18T18:22:00.599Z,68.60
2024-03-18T18:24:58.369Z,68.60
2024-03-18T18:27:53.598Z,68.95
2024-03-18T18:30:46.581Z,69.07
2024-03-18T18:33:40.310Z,68.81
2024-03-18T18:36:33.592Z,69.07
2024-03-18T18:39:27.217Z,69.72
2024-03-18T18:42:20.099Z,69.95
2024-03-18T18:45:14.642Z,70.12
2024-03-18T18:48:09.555Z,69.80
2024-03-18T18:51:03.717Z,69.92
2024-03-18T18:53:56.768Z,69.81
2024-03-18T18:56:49.702Z,70.03
2024-03-18T18:59:43.394Z,70.16
2024-03-18T19:02:37.169Z,70.74
2024-03-18T19:05:31.486Z,70.93
2024-03-18T19:08:24.526Z,70.94
2024-03-18T19:11:17.544Z,70.43
2024-03-18T19:14:13.954Z,69.35
2024-03-18T19:17:08.358Z,70.01
2024-03-18T19:20:01.610Z,70.58
2024-03-18T19:22:54.835Z,69.47
2024-03-18T19:25:54.578Z,69.14
2024-03-18T19:28:48.878Z,69.08
2024-03-18T19:31:43.442Z,68.91
2024-03-18T19:34:36.671Z,68.93
2024-03-18T19:37:30.190Z,69.10
2024-03-18T19:40:26.323Z,68.91
2024-03-18T19:43:21.873Z,68.54
2024-03-18T19:46:16.041Z,68.48
2024-03-18T19:49:09.016Z,68.45
2024-03-18T19:52:01.967Z,68.39
2024-03-18T19:54:55.068Z,68.50
2024-03-18T19:57:49.108Z,68.47
2024-03-18T20:00:42.054Z,68.69
2024-03-18T20:03:35.352Z,68.83
2024-03-18T20:06:28.958Z,68.94
2024-03-18T20:09:22.245Z,68.91
2024-03-18T20:12:15.414Z,68.89
2024-03-18T20:15:12.791Z,68.93
2024-03-18T20:18:06.601Z,68.94
2024-03-18T20:21:00.080Z,68.98
2024-03-18T20:23:52.985Z,69.10
2024-03-18T20:26:47.152Z,69.18
2024-03-18T20:29:40.221Z,69.26
2024-03-18T20:32:32.836Z,69.31
2024-03-18T20:35:26.218Z,69.50
2024-03-18T20:38:20.649Z,69.69
2024-03-18T20:41:14.324Z,69.76
2024-03-18T20:44:07.243Z,69.86
2024-03-18T20:47:05.199Z,69.83
2024-03-18T20:49:58.115Z,69.94
2024-03-18T20:52:51.809Z,70.04
2024-03-18T20:55:48.208Z,70.14
2024-03-18T20:58:41.595Z,70.10
2024-03-18T21:01:35.520Z,70.14
2024-03-18T21:04:30.676Z,70.24
2024-03-18T21:07:24.130Z,70.39
2024-03-18T21:10:19.100Z,70.47
2024-03-18T21:13:12.156Z,70.55
2024-03-18T21:16:08.559Z,70.61
2024-03-18T21:19:01.731Z,70.49
2024-03-18T21:21:54.698Z,70.54
2024-03-18T21:24:47.807Z,70.53
2024-03-18T21:27:41.307Z,70.63
2024-03-18T21:30:34.082Z,70.66
2024-03-18T21:33:27.635Z,70.85
2024-03-18T21:36:20.205Z,70.93
2024-03-18T21:39:14.698Z,71.10
2024-03-18T21:42:08.224Z,71.24
2024-03-18T21:45:01.261Z,71.30
2024-03-18T21:47:54.314Z,71.30
2024-03-18T21:50:48.226Z,71.32
2024-03-18T21:53:41.998Z,71.43
2024-03-18T21:56:34.584Z,71.36
2024-03-18T21:59:28.330Z,71.30
2024-03-18T22:02:21.137Z,71.29
2024-03-18T22:05:14.463Z,71.28
2024-03-18T22:08:09.340Z,71.31
2024-03-18T22:11:02.838Z,71.33
2024-03-18T22:13:55.961Z,71.40
2024-03-18T22:16:48.491Z,71.46
2024-03-18T22:19:41.015Z,71.59
2024-03-18T22:22:35.905Z,71.56
2024-03-18T22:25:28.850Z,71.51
2024-03-18T22:28:22.009Z,71.64
2024-03-18T22:31:19.822Z,71.79
2024-03-18T22:34:13.604Z,71.78
2024-03-18T22:37:07.162Z,71.78
2024-03-18T22:39:59.908Z,71.76
2024-03-18T22:42:52.690Z,71.81
2024-03-18T22:45:46.442Z,71.98
2024-03-18T22:48:39.546Z,72.07
2024-03-18T22:51:33.635Z,72.32
2024-03-18T22:54:26.472Z,72.32
2024-03-18T22:57:19.666Z,72.33
2024-03-18T23:00:18.834Z,72.51
2024-03-18T23:03:14.541Z,72.67
2024-03-18T23:06:07.988Z,72.69
2024-03-18T23:09:01.070Z,72.60
2024-03-18T23:11:53.548Z,72.52
2024-03-18T23:14:46.395Z,72.60
2024-03-18T23:17:39.362Z,72.73
2024-03-18T23:20:32.770Z,72.84
2024-03-18T23:23:25.965Z,72.90
2024-03-18T23:26:19.176Z,73.00
2024-03-18T23:29:13.491Z,73.05
2024-03-18T23:32:07.677Z,73.13
2024-03-18T23:35:00.659Z,73.18
2024-03-18T23:37:53.864Z,73.17
2024-03-18T23:40:49.550Z,73.20
2024-03-18T23:43:42.620Z,73.30
2024-03-18T23:46:36.948Z,73.39
2024-03-18T23:49:30.077Z,73.41
2024-03-18T23:52:23.122Z,73.44
2024-03-18T23:55:16.158Z,73.56
2024-03-18T23:58:10.196Z,73.55
